• Join FlightAware (Why Join?)
  • Login
  • US Flag 
10:18AM EDT


 

Airport Tracker/Info


-or-


 

Live Flight TrackerFlight Track Log ✈ RPA3341 ✈ 19-Apr-2013 ✈ CYHZ - KPHL

Flight Track Log - Related Links

Times and Time Zones

All times are in EDT time to prevent confusion due to time zone crossing. See the RPA3341 flight status page for this flight to view local times or setup timezone preferences in your user account.

Time Position Orientation Groundspeed Altitude Reporting Facility
EDT Latitude Longitude Course Direction KTS MPH feet Rate Location/Type
06:09AM 44.8667 -63.5000 264° West 170 196 400  Level Moncton Center
06:10AM 44.8333 -63.5500 227° Southwest 140 161 2,600 2,040 Climbing Moncton Center
06:11AM 44.8167 -63.6167 251° West 200 230 4,500 2,280 Climbing Moncton Center
06:12AM 44.8303 -63.8851 257° West  Level FlightAware Approximate
06:12AM 44.8000 -63.6833 251° West 230 265 7,200  Level Moncton Center
06:13AM 44.8091 -64.0126 257° West  Level FlightAware Approximate
06:13AM 44.7833 -63.7833 257° West 240 276 9,800  Level Moncton Center
06:14AM 44.7947 -64.1416 264° West  Level FlightAware Approximate
06:14AM 44.7667 -63.9000 259° West 260 299 11,600  Level Moncton Center
06:15AM 44.7854 -64.2718 264° West  Level FlightAware Approximate
06:15AM 44.7500 -64.0000 257° West 280 322 13,800  Level Moncton Center
06:16AM 44.7333 -64.1167 259° West 290 334 15,700 1,920 Climbing Moncton Center
06:17AM 44.7167 -64.2333 259° West 310 357 17,700 1,560 Climbing Moncton Center
06:18AM 44.7167 -64.3500 270° West 310 357 18,900 1,380 Climbing Moncton Center
06:19AM 44.7000 -64.4833 260° West 320 368 20,500 1,620 Climbing Moncton Center
06:20AM 44.6833 -64.6167 260° West 330 380 22,200 1,440 Climbing Moncton Center
06:21AM 44.6667 -64.7500 260° West 330 380 23,400 1,200 Climbing Moncton Center
06:22AM 44.6500 -64.8667 259° West 350 403 24,600 1,140 Climbing Moncton Center
06:23AM 44.6333 -65.0333 262° West 350 403 25,700 1,080 Climbing Moncton Center
06:24AM 44.6167 -65.1500 259° West 360 414 26,800 1,140 Climbing Moncton Center
06:25AM 44.6000 -65.2833 260° West 370 426 28,000 1,260 Climbing Moncton Center
06:26AM 44.6000 -65.4500 270° West 380 437 29,400 1,320 Climbing Moncton Center
06:27AM 44.5833 -65.6000 261° West 370 426 30,700 1,140 Climbing Moncton Center
06:28AM 44.5667 -65.7333 260° West 370 426 31,700 960 Climbing Moncton Center
06:29AM 44.5500 -65.8833 261° West 380 437 32,700 900 Climbing Moncton Center
06:30AM 44.5333 -66.0167 260° West 380 437 33,500 600 Climbing Moncton Center
06:31AM 44.5000 -66.1833 254° West 380 437 34,000 240 Climbing Moncton Center
06:32AM 44.4833 -66.3167 260° West 380 437 34,000  Level Moncton Center
06:33AM 44.4667 -66.4667 261° West 380 437 34,000  Level Moncton Center
06:34AM 44.4500 -66.6000 260° West 380 437 34,000  Level Moncton Center
06:35AM 44.4333 -66.7667 262° West 380 437 34,000  Level Moncton Center
06:36AM 44.4167 -66.9000 260° West 380 437 34,000  Level Moncton Center
06:37AM 44.3833 -67.0333 251° West 380 437 34,000  Level Moncton Center
06:38AM 44.3500 -67.1833 253° West 380 437 34,000  Level Moncton Center
06:39AM 44.3167 -67.3167 251° West 380 437 34,000  Level Moncton Center
06:40AM 44.2939 -67.4764 259° West 397 457 34,000  Level Boston Center
06:41AM 44.2561 -67.6186 250° West 397 457 34,000  Level Boston Center
06:42AM 44.2203 -67.7578 250° West 397 457 34,000  Level Boston Center
06:43AM 44.1842 -67.8997 251° West 397 457 34,000  Level Boston Center
06:44AM 44.1458 -68.0386 249° West 397 457 34,000  Level Boston Center
06:45AM 44.1094 -68.1775 250° West 397 457 34,000  Level Boston Center
06:46AM 44.0728 -68.3189 250° West 397 457 34,000  Level Boston Center
06:47AM 44.0339 -68.4572 249° West 397 457 34,000  Level Boston Center
06:48AM 44.0028 -68.5806 251° West 390 449 34,000  Level Boston Center
06:49AM 43.9636 -68.7217 249° West 390 449 34,000  Level Boston Center
06:50AM 43.9222 -68.8656 248° West 395 455 34,000  Level Boston Center
06:51AM 43.8847 -69.0033 249° West 395 455 34,000  Level Boston Center
06:52AM 43.8339 -69.1847 249° West 395 455 34,000  Level Boston Center
06:53AM 43.7961 -69.3306 250° West 395 455 34,000  Level Boston Center
06:55AM 43.7167 -69.5500 243° Southwest 390 449 34,000  Level Moncton Center
06:56AM 43.6733 -69.7531 254° West 395 455 34,000  Level Boston Center
06:57AM 43.6350 -69.8925 249° West 395 455 34,000  Level Boston Center
06:58AM 43.5942 -70.0347 248° West 395 455 34,000  Level Boston Center
06:59AM 43.5592 -70.1567 248° West 395 455 34,000  Level Boston Center
07:01AM 43.4667 -70.4333 245° Southwest 390 449 34,000  Level Moncton Center
07:02AM 43.4333 -70.5667 251° West 390 449 34,000  Level Moncton Center
07:02AM 43.4356 -70.5672 350° North 395 455 34,000  Level Boston Center
07:03AM 43.3431 -70.6472 212° Southwest 369 425 34,000  Level Boston Center
07:04AM 43.2311 -70.6875 195° South 381 438 34,000  Level Boston Center
07:05AM 43.1189 -70.7250 194° South 396 456 34,000  Level Boston Center
07:06AM 43.0069 -70.7650 195° South 409 471 34,000  Level Boston Center
07:07AM 42.8972 -70.8047 195° South 414 476 34,000  Level Boston Center
07:08AM 42.7872 -70.8444 195° South 414 476 34,000  Level Boston Center
07:09AM 42.6753 -70.8811 194° South 414 476 34,000  Level Boston Center
07:10AM 42.5783 -70.9597 211° Southwest 414 476 34,000  Level Boston Center
07:11AM 42.4794 -71.0606 217° Southwest 412 474 34,000  Level Boston Center
07:12AM 42.3889 -71.1528 217° Southwest 417 480 34,000  Level Boston Center
07:13AM 42.2961 -71.2444 216° Southwest 417 480 34,000  Level Boston Center
07:14AM 42.2075 -71.3358 217° Southwest 417 480 34,000  Level Boston Center
07:15AM 42.1167 -71.4269 217° Southwest 412 474 34,000  Level Boston Center
07:16AM 42.0236 -71.5233 218° Southwest 412 474 34,000  Level Boston Center
07:17AM 41.9264 -71.6086 213° Southwest 420 483 34,000  Level Boston Center
07:18AM 41.8353 -71.7017 217° Southwest 425 489 34,000  Level Boston Center
07:19AM 41.7419 -71.7919 216° Southwest 425 489 34,000  Level Boston Center
07:20AM 41.6489 -71.8817 216° Southwest 425 489 34,000  Level Boston Center
07:21AM 41.5553 -71.9769 217° Southwest 430 495 34,000  Level Boston Center
07:22AM 41.4642 -72.0661 216° Southwest 430 495 34,000  Level Boston Center
07:23AM 41.3706 -72.1553 216° Southwest 425 489 34,000  Level Boston Center
07:24AM 41.2789 -72.2467 217° Southwest 425 489 34,000 -180 Level Boston Center
07:25AM 41.1978 -72.3242 216° Southwest 425 489 33,700 -1,200 Descending Boston Center
07:26AM 41.1019 -72.4125 215° Southwest 425 489 31,700 -1,860 Descending Boston Center
07:27AM 41.0083 -72.5061 217° Southwest 425 489 30,000 -840 Descending Boston Center
07:28AM 40.9103 -72.6047 217° Southwest 436 502 30,000  Level Boston Center
07:29AM 40.8081 -72.6978 215° Southwest 436 502 30,000 -840 Level Boston Center
07:30AM 40.6972 -72.7958 214° Southwest 441 507 28,400 -2,100 Descending Boston Center
07:33AM 40.5056 -72.9819 216° Southwest 420 483 23,400 -2,460 Descending New York Center
07:33AM 40.4208 -73.0611 215° Southwest 394 453 20,800 -1,740 Descending New York Center
07:34AM 40.3444 -73.1347 216° Southwest 371 427 20,000 -420 Descending New York Center
07:35AM 40.2678 -73.2083 216° Southwest 351 404 20,000 -600 Level New York Center
07:36AM 40.1914 -73.2761 214° Southwest 345 397 18,900 -1,260 Descending New York Center
07:37AM 40.1089 -73.3303 207° Southwest 334 384 17,500 -1,320 Descending New York Center
07:39AM 40.0208 -73.3594 194° South 334 384 16,300 -780 Descending New York Center
07:39AM 39.9544 -73.4383 222° Southwest 316 364 16,000 -180 Descending New York Center
07:40AM 39.9067 -73.5175 232° Southwest 316 364 16,000  Level New York Center
07:42AM 39.8483 -73.6100 231° Southwest 321 369 16,000  Level New York Center
07:43AM 39.7958 -73.6997 233° Southwest 326 375 16,000 -300 Level New York Center
07:44AM 39.7294 -73.8053 231° Southwest 310 357 15,400 -660 Descending Washington Center
07:45AM 39.6764 -73.8931 232° Southwest 315 362 14,700 -600 Descending Washington Center
07:46AM 39.6153 -73.9889 230° Southwest 315 362 14,200 -360 Descending Washington Center
07:47AM 39.5642 -74.0761 233° Southwest 315 362 14,000 -240 Descending Washington Center
07:47AM 39.5331 -74.1289 233° Southwest 310 357 13,900 -120 Descending FAA TRACON SMA TRACON (SMA)
07:48AM 39.5256 -74.1633 254° West 313 360 13,900  Level FAA TRACON SMA TRACON (SMA)
07:48AM 39.5244 -74.2083 268° West 322 371 13,900  Level FAA TRACON SMA TRACON (SMA)
07:48AM 39.5247 -74.2444 271° West 324 373 13,900  Level FAA TRACON SMA TRACON (SMA)
07:49AM 39.5256 -74.2803 272° West 324 373 13,900  Level FAA TRACON SMA TRACON (SMA)
07:49AM 39.5269 -74.3244 272° West 321 369 13,900  Level FAA TRACON SMA TRACON (SMA)
07:49AM 39.5289 -74.3603 274° West 322 371 13,900  Level FAA TRACON SMA TRACON (SMA)
07:50AM 39.5278 -74.3958 268° West 321 369 13,900 -780 Level FAA TRACON SMA TRACON (SMA)
07:50AM 39.5289 -74.4386 272° West 321 369 13,400 -1,800 Descending FAA TRACON SMA TRACON (SMA)
07:50AM 39.5294 -74.4747 271° West 320 368 12,700 -1,980 Descending FAA TRACON SMA TRACON (SMA)
07:51AM 39.5297 -74.5106 271° West 319 367 12,100 -1,980 Descending FAA TRACON SMA TRACON (SMA)
07:51AM 39.5314 -74.5531 273° West 316 364 11,400 -2,100 Descending FAA TRACON SMA TRACON (SMA)
07:51AM 39.5314 -74.5886 270° West 315 362 10,700 -1,800 Descending FAA TRACON SMA TRACON (SMA)
07:52AM 39.5319 -74.6225 271° West 309 356 10,200 -1,980 Descending FAA TRACON SMA TRACON (SMA)
07:52AM 39.5336 -74.6639 273° West 306 352 9,400 -1,800 Descending FAA TRACON SMA TRACON (SMA)
07:52AM 39.5336 -74.6964 270° West 298 343 9,000 -780 Descending FAA TRACON SMA TRACON (SMA)
07:53AM 39.5339 -74.7278 271° West 289 333 8,900 -180 Descending FAA TRACON SMA TRACON (SMA)
07:53AM 39.5350 -74.7656 272° West 275 316 8,900  Level FAA TRACON SMA TRACON (SMA)
07:53AM 39.5353 -74.7944 271° West 269 310 8,900  Level FAA TRACON SMA TRACON (SMA)
07:54AM 39.5353 -74.8272 270° West 270 311 8,900  Level FAA TRACON SMA TRACON (SMA)
07:54AM 39.5364 -74.8619 272° West 269 310 8,900 -780 Level FAA TRACON SMA TRACON (SMA)
07:54AM 39.5369 -74.8911 271° West 266 306 8,400 -1,500 Descending FAA TRACON SMA TRACON (SMA)
07:55AM 39.5369 -74.9194 270° West 265 305 7,900 -1,560 Descending FAA TRACON SMA TRACON (SMA)
07:55AM 39.5375 -74.9567 271° West 261 300 7,300 -1,680 Descending FAA TRACON SMA TRACON (SMA)
07:55AM 39.5397 -74.9919 275° West 258 297 6,700 -1,680 Descending FAA TRACON SMA TRACON (SMA)
07:56AM 39.5414 -75.0122 276° West 256 295 6,300 -1,140 Descending FAA TRACON SMA TRACON (SMA)
07:56AM 39.5442 -75.0478 276° West 252 290 6,000 -480 Descending FAA TRACON SMA TRACON (SMA)
07:56AM 39.5461 -75.0750 275° West 249 287 6,000  Level FAA TRACON SMA TRACON (SMA)
07:57AM 39.5481 -75.1022 275° West 251 289 6,000  Level FAA TRACON SMA TRACON (SMA)
07:57AM 39.5506 -75.1381 275° West 252 290 6,000 -180 Level FAA TRACON SMA TRACON (SMA)
07:57AM 39.5522 -75.1625 275° West 251 289 5,900  Descending FAA TRACON SMA TRACON (SMA)
07:58AM 39.5550 -75.1939 277° West 253 291 6,000 120 Climbing FAA TRACON SMA TRACON (SMA)
07:58AM 39.5572 -75.2219 276° West 253 291 6,000  Level FAA TRACON SMA TRACON (SMA)
07:58AM 39.5594 -75.2542 275° West 254 292 6,000  Level FAA TRACON SMA TRACON (SMA)
07:59AM 39.5675 -75.2839 289° West 270 311 6,000  Level FAA TRACON SMA TRACON (SMA)
07:59AM 39.5839 -75.3069 313° West 281 323 6,000 -180 Level FAA TRACON SMA TRACON (SMA)
07:59AM 39.6106 -75.3222 336° Northwest 276 318 5,900  Descending FAA TRACON SMA TRACON (SMA)
08:00AM 39.6339 -75.3336 339° North 273 314 6,000 120 Climbing FAA TRACON SMA TRACON (SMA)
08:00AM 39.6544 -75.3422 342° North 245 282 6,000  Level FAA TRACON SMA TRACON (SMA)
08:00AM 39.6767 -75.3525 340° North 229 264 6,000  Level FAA TRACON SMA TRACON (SMA)
08:01AM 39.6944 -75.3594 343° North 227 261 6,000  Level FAA TRACON SMA TRACON (SMA)
08:01AM 39.7106 -75.3689 336° Northwest 228 262 6,000 -600 Level FAA TRACON SMA TRACON (SMA)
08:01AM 39.7264 -75.3881 317° Northwest 169 194 5,600 -1,200 Descending FAA TRACON SMA TRACON (SMA)
08:02AM 39.7300 -75.4056 285° West 148 170 5,200 -1,200 Descending FAA TRACON SMA TRACON (SMA)
08:02AM 39.7283 -75.4233 263° West 153 176 4,800 -1,380 Descending FAA TRACON SMA TRACON (SMA)
08:02AM 39.7239 -75.4422 253° West 146 168 4,300 -1,200 Descending FAA TRACON SMA TRACON (SMA)
08:03AM 39.7217 -75.4581 260° West 147 169 4,000 -480 Descending FAA TRACON SMA TRACON (SMA)
08:03AM 39.7172 -75.4747 251° West 149 171 4,000 -180 Level FAA TRACON SMA TRACON (SMA)
08:03AM 39.7144 -75.4953 260° West 147 169 3,900  Descending FAA TRACON SMA TRACON (SMA)
08:04AM 39.7231 -75.5122 303° West 179 206 4,000 120 Climbing FAA TRACON SMA TRACON (SMA)
08:04AM 39.7333 -75.5272 312° West 184 212 4,000 -180 Level FAA TRACON SMA TRACON (SMA)
08:04AM 39.7472 -75.5428 319° Northwest 193 222 3,900 -600 Descending FAA TRACON SMA TRACON (SMA)
08:05AM 39.7664 -75.5469 351° North 207 238 3,600 -1,080 Descending FAA TRACON SMA TRACON (SMA)
08:05AM 39.7842 -75.5517 348° North 206 237 3,200 -900 Descending FAA TRACON SMA TRACON (SMA)
08:05AM 39.8003 -75.5400 29° Northeast 214 246 3,000 -360 Descending FAA TRACON SMA TRACON (SMA)
08:06AM 39.8117 -75.5139 60° Northeast 209 241 3,000  Level FAA TRACON SMA TRACON (SMA)
08:06AM 39.8172 -75.4917 72° East 209 241 3,000 -180 Level FAA TRACON SMA TRACON (SMA)
08:06AM 39.8225 -75.4644 76° East 208 239 2,900 -600 Descending FAA TRACON SMA TRACON (SMA)
08:07AM 39.8281 -75.4417 72° East 208 239 2,600 -900 Descending FAA TRACON SMA TRACON (SMA)
08:07AM 39.8317 -75.4189 78° East 207 238 2,300 -900 Descending FAA TRACON SMA TRACON (SMA)
08:07AM 39.8361 -75.3972 75° East 202 232 2,000 -1,200 Descending FAA TRACON SMA TRACON (SMA)
08:08AM 39.8414 -75.3711 75° East 196 226 1,500 -1,200 Descending FAA TRACON SMA TRACON (SMA)
08:08AM 39.8456 -75.3517 74° East 185 213 1,200 -780 Descending FAA TRACON SMA TRACON (SMA)
08:08AM 39.8483 -75.3361 77° East 160 184 1,000 -780 Descending FAA TRACON SMA TRACON (SMA)
08:09AM 39.8528 -75.3167 73° East 133 153 700 -780 Descending FAA TRACON SMA TRACON (SMA)
08:09AM 39.8558 -75.3006 76° East 143 165 500 -780 Descending FAA TRACON SMA TRACON (SMA)
08:09AM 39.8586 -75.2853 77° East 142 163 200 -900 Descending FAA TRACON SMA TRACON (SMA)